GTI43 KJAX-KCHS
Flight info
| Callsign | GTI43 |
|---|---|
| Flight time | 0h 36m |
| Altitude | 21000 |
| Route | CROSB2 WISPR SAV BAGGY3 |
| Aircraft | B737/M-SDE2E3FGHIRWXY/LB1 |
Departure
| Time | 2026-04-26 22:53 |
|---|---|
| Airport | Jacksonville International Airport (KJAX) |
Arrival
| Time | 2026-04-26 23:30 |
|---|---|
| Airport | Charleston International Airport (KCHS) |
| Time | Latitude | Longitude | Altitude | Speed | Heading |
|---|---|---|---|---|---|
| 2026-04-26 22:22 | 30.49324 | -81.68612 | 38 ft | 0 kts | 105° |
| 2026-04-26 22:45 | 30.49330 | -81.68638 | 37 ft | 4 kts | 105° |
| 2026-04-26 22:45 | 30.49337 | -81.68668 | 34 ft | 4 kts | 90° |
| 2026-04-26 22:45 | 30.49331 | -81.68695 | 38 ft | 4 kts | 39° |
| 2026-04-26 22:46 | 30.49317 | -81.68701 | 37 ft | 1 kts | 355° |
| 2026-04-26 22:46 | 30.49314 | -81.68701 | 37 ft | 0 kts | 355° |
| 2026-04-26 22:48 | 30.49324 | -81.68702 | 37 ft | 4 kts | 355° |
| 2026-04-26 22:48 | 30.49368 | -81.68713 | 37 ft | 8 kts | 333° |
| 2026-04-26 22:48 | 30.49390 | -81.68768 | 38 ft | 8 kts | 269° |
| 2026-04-26 22:49 | 30.49383 | -81.68831 | 38 ft | 8 kts | 264° |
| 2026-04-26 22:49 | 30.49378 | -81.68902 | 38 ft | 10 kts | 265° |
| 2026-04-26 22:49 | 30.49395 | -81.68981 | 38 ft | 11 kts | 317° |
| 2026-04-26 22:49 | 30.49458 | -81.69023 | 38 ft | 10 kts | 329° |
| 2026-04-26 22:50 | 30.49519 | -81.69065 | 38 ft | 10 kts | 329° |
| 2026-04-26 22:50 | 30.49578 | -81.69105 | 41 ft | 10 kts | 329° |
| 2026-04-26 22:50 | 30.49637 | -81.69145 | 41 ft | 11 kts | 330° |
| 2026-04-26 22:50 | 30.49684 | -81.69215 | 41 ft | 13 kts | 266° |
| 2026-04-26 22:51 | 30.49655 | -81.69319 | 42 ft | 15 kts | 250° |
| 2026-04-26 22:51 | 30.49617 | -81.69445 | 40 ft | 18 kts | 250° |
| 2026-04-26 22:51 | 30.49573 | -81.69588 | 39 ft | 19 kts | 249° |
| 2026-04-26 22:51 | 30.49531 | -81.69725 | 35 ft | 18 kts | 250° |
| 2026-04-26 22:52 | 30.49492 | -81.69850 | 31 ft | 12 kts | 250° |
| 2026-04-26 22:52 | 30.49502 | -81.69932 | 32 ft | 11 kts | 324° |
| 2026-04-26 22:52 | 30.49574 | -81.69966 | 33 ft | 11 kts | 342° |
| 2026-04-26 22:52 | 30.49637 | -81.69951 | 33 ft | 11 kts | 69° |
| 2026-04-26 22:53 | 30.49706 | -81.69725 | 36 ft | 62 kts | 70° |
| 2026-04-26 22:53 | 30.49923 | -81.69018 | 38 ft | 122 kts | 70° |
| 2026-04-26 22:53 | 30.50245 | -81.67966 | 270 ft | 144 kts | 70° |
| 2026-04-26 22:53 | 30.50603 | -81.66836 | 737 ft | 156 kts | 68° |
| 2026-04-26 22:54 | 30.50983 | -81.65639 | 1275 ft | 165 kts | 65° |
| 2026-04-26 22:54 | 30.51412 | -81.64401 | 1857 ft | 166 kts | 67° |
| 2026-04-26 22:54 | 30.51874 | -81.63040 | 2237 ft | 199 kts | 67° |
| 2026-04-26 22:54 | 30.52443 | -81.61443 | 2497 ft | 229 kts | 57° |
| 2026-04-26 22:55 | 30.53700 | -81.60269 | 2960 ft | 244 kts | 18° |
| 2026-04-26 22:55 | 30.55414 | -81.59764 | 3546 ft | 260 kts | 9° |
| 2026-04-26 22:55 | 30.57186 | -81.59331 | 4519 ft | 261 kts | 9° |
| 2026-04-26 22:55 | 30.58984 | -81.58883 | 5403 ft | 267 kts | 11° |
| 2026-04-26 22:56 | 30.60813 | -81.58407 | 6340 ft | 272 kts | 10° |
| 2026-04-26 22:56 | 30.62663 | -81.57906 | 7311 ft | 275 kts | 10° |
| 2026-04-26 22:56 | 30.64538 | -81.57385 | 8295 ft | 279 kts | 11° |
| 2026-04-26 22:56 | 30.66441 | -81.56846 | 9334 ft | 283 kts | 11° |
| 2026-04-26 22:57 | 30.68372 | -81.56293 | 10303 ft | 289 kts | 11° |
| 2026-04-26 22:57 | 30.70392 | -81.55712 | 10805 ft | 313 kts | 11° |
| 2026-04-26 22:57 | 30.71840 | -81.55296 | 10957 ft | 333 kts | 11° |
| 2026-04-26 22:57 | 30.74143 | -81.54627 | 11571 ft | 346 kts | 11° |
| 2026-04-26 22:58 | 30.77268 | -81.53711 | 12758 ft | 352 kts | 11° |
| 2026-04-26 22:58 | 30.79653 | -81.53011 | 13696 ft | 356 kts | 11° |
| 2026-04-26 22:58 | 30.82068 | -81.52305 | 14522 ft | 361 kts | 11° |
| 2026-04-26 22:58 | 30.83722 | -81.51822 | 15072 ft | 364 kts | 11° |
| 2026-04-26 22:59 | 30.86978 | -81.50705 | 16166 ft | 374 kts | 18° |
| 2026-04-26 22:59 | 30.89399 | -81.49519 | 17006 ft | 380 kts | 20° |
| 2026-04-26 22:59 | 30.91052 | -81.48693 | 17556 ft | 384 kts | 19° |
| 2026-04-26 22:59 | 30.93508 | -81.47525 | 18321 ft | 388 kts | 15° |
| 2026-04-26 23:00 | 30.96130 | -81.46755 | 18984 ft | 390 kts | 8° |
| 2026-04-26 23:00 | 30.98808 | -81.46149 | 19737 ft | 394 kts | 6° |
| 2026-04-26 23:00 | 31.01521 | -81.45573 | 20432 ft | 399 kts | 6° |
| 2026-04-26 23:00 | 31.04269 | -81.44994 | 20821 ft | 402 kts | 6° |
| 2026-04-26 23:01 | 31.07039 | -81.44400 | 20926 ft | 410 kts | 7° |
| 2026-04-26 23:01 | 31.09856 | -81.43785 | 20930 ft | 412 kts | 7° |
| 2026-04-26 23:01 | 31.12669 | -81.43159 | 20925 ft | 410 kts | 7° |
| 2026-04-26 23:01 | 31.15506 | -81.42524 | 20988 ft | 422 kts | 7° |
| 2026-04-26 23:02 | 31.18438 | -81.41866 | 21278 ft | 434 kts | 7° |
| 2026-04-26 23:02 | 31.21419 | -81.41194 | 21789 ft | 438 kts | 7° |
| 2026-04-26 23:02 | 31.24411 | -81.40515 | 22577 ft | 436 kts | 7° |
| 2026-04-26 23:02 | 31.27361 | -81.39842 | 23591 ft | 429 kts | 7° |
| 2026-04-26 23:03 | 31.30270 | -81.39179 | 24356 ft | 423 kts | 6° |
| 2026-04-26 23:03 | 31.33166 | -81.38520 | 24745 ft | 424 kts | 6° |
| 2026-04-26 23:03 | 31.36059 | -81.37864 | 24924 ft | 424 kts | 6° |
| 2026-04-26 23:03 | 31.38953 | -81.37208 | 24941 ft | 423 kts | 6° |
| 2026-04-26 23:04 | 31.41840 | -81.36553 | 24950 ft | 423 kts | 6° |
| 2026-04-26 23:04 | 31.44729 | -81.35898 | 24951 ft | 423 kts | 6° |
| 2026-04-26 23:04 | 31.47619 | -81.35242 | 24954 ft | 423 kts | 6° |
| 2026-04-26 23:04 | 31.50509 | -81.34585 | 24951 ft | 423 kts | 6° |
| 2026-04-26 23:05 | 31.53401 | -81.33927 | 24954 ft | 424 kts | 6° |
| 2026-04-26 23:05 | 31.56298 | -81.33267 | 24948 ft | 424 kts | 6° |
| 2026-04-26 23:05 | 31.59198 | -81.32606 | 24941 ft | 424 kts | 6° |
| 2026-04-26 23:05 | 31.62097 | -81.31945 | 24940 ft | 424 kts | 6° |
| 2026-04-26 23:06 | 31.64993 | -81.31284 | 24943 ft | 424 kts | 6° |
| 2026-04-26 23:06 | 31.67891 | -81.30622 | 24939 ft | 424 kts | 6° |
| 2026-04-26 23:06 | 31.70787 | -81.29960 | 24939 ft | 424 kts | 6° |
| 2026-04-26 23:06 | 31.73682 | -81.29298 | 24938 ft | 424 kts | 6° |
| 2026-04-26 23:07 | 31.76579 | -81.28635 | 24940 ft | 424 kts | 6° |
| 2026-04-26 23:07 | 31.79431 | -81.27983 | 24943 ft | 423 kts | 6° |
| 2026-04-26 23:07 | 31.82325 | -81.27323 | 24929 ft | 424 kts | 6° |
| 2026-04-26 23:07 | 31.85219 | -81.26658 | 24926 ft | 424 kts | 6° |
| 2026-04-26 23:08 | 31.88112 | -81.25993 | 24924 ft | 424 kts | 6° |
| 2026-04-26 23:08 | 31.91009 | -81.25327 | 24918 ft | 424 kts | 6° |
| 2026-04-26 23:08 | 31.93903 | -81.24662 | 24917 ft | 424 kts | 6° |
| 2026-04-26 23:08 | 31.96798 | -81.23997 | 24916 ft | 424 kts | 6° |
| 2026-04-26 23:09 | 31.99693 | -81.23331 | 24922 ft | 424 kts | 6° |
| 2026-04-26 23:09 | 32.02589 | -81.22665 | 24918 ft | 424 kts | 6° |
| 2026-04-26 23:09 | 32.05488 | -81.22000 | 24987 ft | 424 kts | 6° |
| 2026-04-26 23:09 | 32.08386 | -81.21337 | 24979 ft | 424 kts | 6° |
| 2026-04-26 23:10 | 32.11284 | -81.20669 | 24972 ft | 425 kts | 8° |
| 2026-04-26 23:10 | 32.14064 | -81.19413 | 24973 ft | 435 kts | 26° |
| 2026-04-26 23:10 | 32.16455 | -81.17178 | 24965 ft | 446 kts | 44° |
| 2026-04-26 23:10 | 32.18387 | -81.14295 | 24986 ft | 448 kts | 49° |
| 2026-04-26 23:11 | 32.20233 | -81.11321 | 24976 ft | 449 kts | 50° |
| 2026-04-26 23:11 | 32.22053 | -81.08335 | 24723 ft | 446 kts | 50° |
| 2026-04-26 23:11 | 32.23864 | -81.05372 | 24169 ft | 443 kts | 50° |
| 2026-04-26 23:11 | 32.25670 | -81.02444 | 23541 ft | 438 kts | 50° |
| 2026-04-26 23:12 | 32.27463 | -80.99561 | 22794 ft | 433 kts | 50° |
| 2026-04-26 23:12 | 32.29219 | -80.96757 | 22110 ft | 428 kts | 50° |
| 2026-04-26 23:12 | 32.31006 | -80.93910 | 21433 ft | 423 kts | 50° |
| 2026-04-26 23:12 | 32.32748 | -80.91137 | 20773 ft | 418 kts | 50° |
| 2026-04-26 23:13 | 32.34469 | -80.88397 | 20126 ft | 413 kts | 50° |
| 2026-04-26 23:13 | 32.36174 | -80.85681 | 19478 ft | 409 kts | 50° |
| 2026-04-26 23:13 | 32.37857 | -80.82996 | 18829 ft | 404 kts | 50° |
| 2026-04-26 23:13 | 32.39503 | -80.80368 | 18163 ft | 401 kts | 50° |
| 2026-04-26 23:14 | 32.41176 | -80.77696 | 17428 ft | 397 kts | 50° |
| 2026-04-26 23:14 | 32.42806 | -80.75088 | 16759 ft | 392 kts | 50° |
| 2026-04-26 23:14 | 32.44415 | -80.72513 | 16114 ft | 387 kts | 50° |
| 2026-04-26 23:14 | 32.46003 | -80.69969 | 15477 ft | 382 kts | 50° |
| 2026-04-26 23:15 | 32.47555 | -80.67484 | 14854 ft | 379 kts | 50° |
| 2026-04-26 23:15 | 32.49135 | -80.64951 | 14198 ft | 376 kts | 51° |
| 2026-04-26 23:15 | 32.50660 | -80.62504 | 13529 ft | 373 kts | 51° |
| 2026-04-26 23:15 | 32.52197 | -80.60036 | 12733 ft | 371 kts | 51° |
| 2026-04-26 23:16 | 32.53738 | -80.57560 | 11899 ft | 372 kts | 51° |
| 2026-04-26 23:16 | 32.55249 | -80.55128 | 11216 ft | 361 kts | 51° |
| 2026-04-26 23:16 | 32.56714 | -80.52769 | 10597 ft | 350 kts | 51° |
| 2026-04-26 23:16 | 32.58121 | -80.50502 | 10410 ft | 332 kts | 51° |
| 2026-04-26 23:17 | 32.59458 | -80.48347 | 10253 ft | 317 kts | 51° |
| 2026-04-26 23:17 | 32.60737 | -80.46284 | 10116 ft | 304 kts | 50° |
| 2026-04-26 23:17 | 32.61971 | -80.44318 | 9988 ft | 291 kts | 49° |
| 2026-04-26 23:17 | 32.63207 | -80.42456 | 9646 ft | 286 kts | 48° |
| 2026-04-26 23:18 | 32.64401 | -80.40584 | 9296 ft | 284 kts | 58° |
| 2026-04-26 23:18 | 32.64993 | -80.38371 | 9146 ft | 278 kts | 79° |
| 2026-04-26 23:18 | 32.65217 | -80.36143 | 9051 ft | 265 kts | 81° |
| 2026-04-26 23:18 | 32.65387 | -80.34024 | 8947 ft | 251 kts | 82° |
| 2026-04-26 23:19 | 32.65539 | -80.32002 | 8849 ft | 241 kts | 82° |
| 2026-04-26 23:19 | 32.65682 | -80.30045 | 8668 ft | 236 kts | 82° |
| 2026-04-26 23:19 | 32.65821 | -80.28115 | 8390 ft | 233 kts | 82° |
| 2026-04-26 23:19 | 32.65956 | -80.26207 | 8055 ft | 231 kts | 82° |
| 2026-04-26 23:20 | 32.66090 | -80.24310 | 7710 ft | 230 kts | 82° |
| 2026-04-26 23:20 | 32.66220 | -80.22434 | 7224 ft | 230 kts | 82° |
| 2026-04-26 23:20 | 32.66355 | -80.20521 | 6683 ft | 233 kts | 82° |
| 2026-04-26 23:20 | 32.66487 | -80.18644 | 6171 ft | 232 kts | 82° |
| 2026-04-26 23:21 | 32.66626 | -80.16746 | 5693 ft | 229 kts | 82° |
| 2026-04-26 23:21 | 32.66767 | -80.14875 | 5208 ft | 227 kts | 82° |
| 2026-04-26 23:21 | 32.66906 | -80.13019 | 4756 ft | 223 kts | 81° |
| 2026-04-26 23:21 | 32.67038 | -80.11188 | 4280 ft | 223 kts | 82° |
| 2026-04-26 23:22 | 32.67180 | -80.09353 | 3930 ft | 219 kts | 82° |
| 2026-04-26 23:22 | 32.67322 | -80.07584 | 3571 ft | 215 kts | 82° |
| 2026-04-26 23:22 | 32.67465 | -80.05817 | 3254 ft | 211 kts | 82° |
| 2026-04-26 23:22 | 32.67598 | -80.04125 | 3027 ft | 204 kts | 82° |
| 2026-04-26 23:23 | 32.67732 | -80.02471 | 2996 ft | 199 kts | 82° |
| 2026-04-26 23:23 | 32.67870 | -80.00850 | 3001 ft | 197 kts | 82° |
| 2026-04-26 23:23 | 32.67995 | -79.99269 | 2989 ft | 187 kts | 82° |
| 2026-04-26 23:23 | 32.68299 | -79.97833 | 2986 ft | 179 kts | 54° |
| 2026-04-26 23:24 | 32.69140 | -79.96762 | 2994 ft | 177 kts | 43° |
| 2026-04-26 23:24 | 32.70017 | -79.95813 | 2989 ft | 166 kts | 41° |
| 2026-04-26 23:24 | 32.70855 | -79.94905 | 2762 ft | 163 kts | 42° |
| 2026-04-26 23:24 | 32.71811 | -79.94189 | 2418 ft | 165 kts | 12° |
| 2026-04-26 23:25 | 32.72942 | -79.94266 | 2244 ft | 158 kts | 353° |
| 2026-04-26 23:25 | 32.73989 | -79.94517 | 2055 ft | 153 kts | 352° |
| 2026-04-26 23:25 | 32.75032 | -79.94787 | 2011 ft | 154 kts | 352° |
| 2026-04-26 23:25 | 32.76082 | -79.95078 | 1998 ft | 157 kts | 352° |
| 2026-04-26 23:26 | 32.77138 | -79.95385 | 2003 ft | 154 kts | 351° |
| 2026-04-26 23:26 | 32.78174 | -79.95681 | 1804 ft | 148 kts | 352° |
| 2026-04-26 23:26 | 32.79194 | -79.95977 | 1671 ft | 156 kts | 352° |
| 2026-04-26 23:26 | 32.80199 | -79.96414 | 1608 ft | 152 kts | 337° |
| 2026-04-26 23:27 | 32.81063 | -79.97030 | 1629 ft | 140 kts | 334° |
| 2026-04-26 23:27 | 32.81863 | -79.97634 | 1599 ft | 131 kts | 334° |
| 2026-04-26 23:27 | 32.82630 | -79.98216 | 1553 ft | 133 kts | 334° |
| 2026-04-26 23:27 | 32.83152 | -79.98612 | 1451 ft | 135 kts | 334° |
| 2026-04-26 23:28 | 32.84205 | -79.99429 | 1205 ft | 135 kts | 332° |
| 2026-04-26 23:28 | 32.84990 | -80.00033 | 1039 ft | 134 kts | 332° |
| 2026-04-26 23:28 | 32.85775 | -80.00631 | 870 ft | 134 kts | 333° |
| 2026-04-26 23:28 | 32.86550 | -80.01215 | 695 ft | 130 kts | 334° |
| 2026-04-26 23:29 | 32.87309 | -80.01790 | 523 ft | 129 kts | 335° |
| 2026-04-26 23:29 | 32.88043 | -80.02339 | 337 ft | 126 kts | 332° |
| 2026-04-26 23:29 | 32.88839 | -80.02954 | 174 ft | 136 kts | 328° |
| 2026-04-26 23:29 | 32.89617 | -80.03535 | 57 ft | 125 kts | 328° |
| 2026-04-26 23:30 | 32.90253 | -80.04018 | 50 ft | 93 kts | 328° |
| 2026-04-26 23:30 | 32.90709 | -80.04362 | 47 ft | 64 kts | 328° |
| 2026-04-26 23:30 | 32.91038 | -80.04609 | 64 ft | 30 kts | 327° |
| 2026-04-26 23:30 | 32.91173 | -80.04714 | 58 ft | 22 kts | 327° |
| 2026-04-26 23:31 | 32.91272 | -80.04800 | 62 ft | 11 kts | 301° |
| 2026-04-26 23:31 | 32.91261 | -80.04867 | 61 ft | 8 kts | 237° |
| 2026-04-26 23:31 | 32.91229 | -80.04926 | 62 ft | 9 kts | 238° |
| 2026-04-26 23:31 | 32.91191 | -80.04992 | 57 ft | 10 kts | 223° |
| 2026-04-26 23:32 | 32.91125 | -80.04981 | 53 ft | 10 kts | 148° |
| 2026-04-26 23:32 | 32.91066 | -80.04937 | 58 ft | 10 kts | 148° |
| 2026-04-26 23:32 | 32.91007 | -80.04893 | 55 ft | 11 kts | 148° |
| 2026-04-26 23:32 | 32.90928 | -80.04833 | 59 ft | 18 kts | 147° |
| 2026-04-26 23:33 | 32.90808 | -80.04741 | 57 ft | 22 kts | 147° |
| 2026-04-26 23:33 | 32.90680 | -80.04645 | 48 ft | 21 kts | 147° |
| 2026-04-26 23:33 | 32.90556 | -80.04550 | 52 ft | 21 kts | 147° |
| 2026-04-26 23:33 | 32.90435 | -80.04461 | 52 ft | 20 kts | 152° |
| 2026-04-26 23:34 | 32.90301 | -80.04440 | 50 ft | 19 kts | 181° |
| 2026-04-26 23:34 | 32.90168 | -80.04443 | 51 ft | 19 kts | 181° |
| 2026-04-26 23:34 | 32.90040 | -80.04446 | 52 ft | 18 kts | 181° |
| 2026-04-26 23:34 | 32.89916 | -80.04449 | 52 ft | 18 kts | 181° |
| 2026-04-26 23:35 | 32.89796 | -80.04452 | 52 ft | 17 kts | 181° |
| 2026-04-26 23:35 | 32.89680 | -80.04455 | 52 ft | 16 kts | 181° |
| 2026-04-26 23:35 | 32.89569 | -80.04457 | 49 ft | 16 kts | 181° |
| 2026-04-26 23:35 | 32.89461 | -80.04459 | 52 ft | 15 kts | 181° |
| 2026-04-26 23:36 | 32.89356 | -80.04462 | 50 ft | 14 kts | 181° |
| 2026-04-26 23:36 | 32.89305 | -80.04388 | 50 ft | 13 kts | 89° |
| 2026-04-26 23:36 | 32.89304 | -80.04279 | 50 ft | 13 kts | 91° |
| 2026-04-26 23:36 | 32.89289 | -80.04176 | 50 ft | 13 kts | 103° |
| 2026-04-26 23:37 | 32.89270 | -80.04069 | 50 ft | 14 kts | 101° |
| 2026-04-26 23:37 | 32.89248 | -80.03940 | 51 ft | 18 kts | 101° |
| 2026-04-26 23:37 | 32.89220 | -80.03777 | 48 ft | 22 kts | 101° |
| 2026-04-26 23:37 | 32.89190 | -80.03621 | 46 ft | 14 kts | 117° |
| 2026-04-26 23:38 | 32.89104 | -80.03598 | 45 ft | 13 kts | 182° |
| 2026-04-26 23:38 | 32.89014 | -80.03602 | 45 ft | 13 kts | 184° |
| 2026-04-26 23:38 | 32.88924 | -80.03615 | 42 ft | 14 kts | 187° |
| 2026-04-26 23:38 | 32.88824 | -80.03632 | 38 ft | 15 kts | 188° |
| 2026-04-26 23:39 | 32.88717 | -80.03650 | 37 ft | 15 kts | 188° |
| 2026-04-26 23:39 | 32.88639 | -80.03670 | 37 ft | 10 kts | 221° |
| 2026-04-26 23:39 | 32.88610 | -80.03717 | 37 ft | 5 kts | 212° |
| 2026-04-26 23:39 | 32.88604 | -80.03728 | 37 ft | 1 kts | 240° |
| 2026-04-26 23:40 | 32.88602 | -80.03732 | 37 ft | 1 kts | 240° |
| 2026-04-26 23:40 | 32.88598 | -80.03741 | 37 ft | 1 kts | 241° |
| 2026-04-26 23:40 | 32.88597 | -80.03742 | 37 ft | 0 kts | 241° |